Rochelle, IL

3:17 AM CDT on May 21, 2018 (GMT -0500)
Rochelle

Weather History for KRPJ - February, 2013

Change the Weather History Date:

Sunday, February 10, 2013

  Actual Average (KRFD) Record (KRFD)
Temperature  
Mean Temperature 34 °F -  
Max Temperature 43 °F 30 °F 59 °F (2009)
Min Temperature 25 °F 13 °F -20 °F (2011)
Degree Days  
Heating Degree Days 31    
Moisture  
Dew Point 35 °F    
Average Humidity 93    
Maximum Humidity 99    
Minimum Humidity 67    
Precipitation  
Precipitation 0.15 in - - ()
Sea Level Pressure  
Sea Level Pressure 29.69 in    
Wind  
Wind Speed 17 mph (SSE)    
Max Wind Speed 30 mph    
Max Gust Speed 41 mph    
Visibility 7 miles    
Events Rain    
Averages and records for this station are not official NWS values.
T = Trace of Precipitation, MM = Missing Value Source: NWS Daily Summary

Daily Weather History Graph

Daily Weather History Graph

Search for Another Location

Airport or City:

Astronomy

Feb. 10, 2013 Rise Set
Actual Time 6:58 AM CST 5:23 PM CST
Civil Twilight 6:29 AM CST 5:52 PM CST
Nautical Twilight 5:56 AM CST 6:25 PM CST
Astronomical Twilight 5:24 AM CST 6:57 PM CST
Moon 6:46 AM CST (2/10) 6:15 PM CST (2/10)
Length of Visible Light 11h 22m
Length of Day
10h 25m
New Moon, 0% of the Moon is Illuminated
Feb 10
New Moon
Feb 17
First Quarter
Feb 25
Full
Mar 4
Last Quarter
Mar 11
New

Hourly Weather History & Observations

Time (CST) Temp. Windchill Dew Point Humidity Pressure Visibility Wind Dir Wind Speed Gust Speed Precip Events Conditions
12:15 AM 25.3 °F 16.7 °F 23.4 °F 92% 30.04 in 10.0 mi SSE 8.1 mph - N/A   Scattered Clouds
12:35 AM 27.3 °F 17.1 °F 26.2 °F 96% 30.05 in 10.0 mi SSE 11.5 mph - N/A   Mostly Cloudy
12:55 AM 30.4 °F 21.0 °F 28.4 °F 92% 30.04 in 10.0 mi SSE 11.5 mph - N/A   Overcast
1:15 AM 31.5 °F 21.8 °F 28.9 °F 90% 30.03 in 10.0 mi SSE 12.7 mph - N/A   Overcast
1:35 AM 31.3 °F 22.1 °F 28.6 °F 90% 30.02 in 10.0 mi SSE 11.5 mph - N/A   Overcast
1:55 AM 31.6 °F 22.6 °F 28.9 °F 90% 30.01 in 10.0 mi SSE 11.5 mph - N/A   Overcast
2:15 AM 32.0 °F 23.0 °F 29.3 °F 90% 30.00 in 10.0 mi SSE 11.5 mph - N/A   Overcast
2:35 AM 32.0 °F 21.6 °F 29.5 °F 90% 29.99 in 10.0 mi SSE 15.0 mph - N/A   Overcast
2:55 AM 32.5 °F 22.3 °F 29.8 °F 90% 29.98 in 10.0 mi SSE 15.0 mph - N/A   Overcast
3:15 AM 32.7 °F 22.1 °F 30.4 °F 91% 29.97 in 10.0 mi SSE 16.1 mph - N/A   Overcast
3:35 AM 32.9 °F 24.1 °F 30.9 °F 92% 29.96 in 10.0 mi SSE 11.5 mph - N/A   Light Drizzle
3:55 AM 33.3 °F 23.7 °F 31.1 °F 92% 29.96 in 10.0 mi South 13.8 mph - N/A   Drizzle
4:15 AM 33.3 °F 24.1 °F 31.1 °F 92% 29.95 in 10.0 mi SSE 12.7 mph - N/A   Light Drizzle
4:35 AM 33.3 °F 24.6 °F 31.5 °F 93% 29.94 in 10.0 mi SSE 11.5 mph - N/A   Light Drizzle
4:55 AM 33.8 °F 24.8 °F 32.0 °F 93% 29.95 in 10.0 mi South 12.7 mph - N/A   Overcast
5:15 AM 33.8 °F 24.3 °F 32.0 °F 93% 29.94 in 7.0 mi SSE 13.8 mph - N/A   Light Drizzle
5:35 AM 33.8 °F 24.8 °F 32.0 °F 93% 29.92 in 7.0 mi SSE 12.7 mph 19.6 mph N/A   Overcast
5:55 AM 33.8 °F 23.9 °F 32.2 °F 94% 29.90 in 7.0 mi SSE 15.0 mph - 0.02 in Rain Light Rain
6:15 AM 33.8 °F 23.9 °F 32.5 °F 95% 29.89 in 5.0 mi SE 15.0 mph - N/A Rain Light Rain
6:35 AM 33.8 °F 24.3 °F 32.9 °F 96% 29.87 in 5.0 mi SE 13.8 mph - N/A   Overcast
6:55 AM 33.6 °F 24.1 °F 32.9 °F 97% 29.85 in 5.0 mi ESE 13.8 mph - N/A   Overcast
7:15 AM 34.3 °F 23.5 °F 33.8 °F 98% 29.84 in 4.0 mi SE 18.4 mph 23.0 mph N/A   Light Drizzle
7:35 AM 34.5 °F 23.1 °F 33.8 °F 97% 29.84 in 5.0 mi SE 20.7 mph - N/A   Overcast
7:55 AM 34.3 °F 23.9 °F 33.8 °F 98% 29.84 in 4.0 mi SE 17.3 mph - N/A   Drizzle
8:15 AM 34.7 °F 24.3 °F 33.8 °F 97% 29.84 in 4.0 mi SE 17.3 mph - N/A   Overcast
8:35 AM 34.2 °F 22.6 °F 33.6 °F 98% 29.82 in 4.0 mi SE 20.7 mph - N/A   Overcast
8:55 AM 34.3 °F 22.6 °F 33.4 °F 97% 29.80 in 4.0 mi SE 21.9 mph 27.6 mph N/A   Light Drizzle
9:15 AM 34.2 °F 21.8 °F 33.3 °F 97% 29.78 in 2.0 mi SE 24.2 mph 29.9 mph N/A Rain Light Rain
9:35 AM 34.3 °F 22.0 °F 33.8 °F 98% 29.77 in 3.0 mi SE 24.2 mph 32.2 mph N/A Rain Rain
9:55 AM 34.7 °F 22.5 °F 33.8 °F 97% 29.74 in 2.5 mi SE 24.2 mph 33.4 mph 0.03 in Rain Rain
10:15 AM 34.7 °F 22.0 °F 34.0 °F 97% 29.73 in 3.0 mi SE 26.5 mph 29.9 mph 0.03 in Rain Light Rain
10:35 AM 34.7 °F 22.0 °F 34.0 °F 97% 29.71 in 2.5 mi SE 26.5 mph 31.1 mph 0.07 in Rain Rain
10:55 AM 35.1 °F 23.0 °F 34.3 °F 97% 29.70 in 4.0 mi SE 24.2 mph 32.2 mph 0.08 in Rain Rain
11:15 AM 35.6 °F 23.0 °F 34.7 °F 97% 29.67 in 3.0 mi SE 27.6 mph 33.4 mph 0.01 in Rain Light Rain
11:35 AM 35.6 °F 23.4 °F 34.9 °F 97% 29.65 in 4.0 mi SE 25.3 mph 32.2 mph 0.01 in Rain Rain
11:55 AM 36.1 °F 24.7 °F 35.4 °F 97% 29.64 in 7.0 mi SE 23.0 mph 28.8 mph 0.01 in   Overcast
12:15 PM 36.7 °F 24.4 °F 35.8 °F 97% 29.60 in 4.0 mi SE 27.6 mph 33.4 mph N/A   Drizzle
12:35 PM 36.9 °F 25.6 °F 36.1 °F 97% 29.58 in 4.0 mi SE 23.0 mph 28.8 mph N/A Rain Light Rain
12:55 PM 37.6 °F 26.9 °F 36.9 °F 97% 29.57 in 4.0 mi SSE 21.9 mph 28.8 mph N/A Rain Rain
1:15 PM 38.3 °F 27.1 °F 37.8 °F 98% 29.54 in 4.0 mi SSE 25.3 mph 31.1 mph 0.01 in Rain Rain
1:35 PM 39.2 °F 27.8 °F 38.5 °F 97% 29.53 in 3.0 mi SSE 27.6 mph 33.4 mph 0.01 in Rain Light Rain
1:55 PM 39.4 °F 28.3 °F 38.7 °F 97% 29.52 in 3.0 mi SSE 26.5 mph - 0.01 in   Light Drizzle
2:15 PM 40.1 °F 28.8 °F 39.2 °F 97% 29.50 in 7.0 mi SSE 28.8 mph 36.8 mph N/A   Overcast
2:35 PM 40.3 °F 30.4 °F 39.4 °F 97% 29.52 in 7.0 mi South 21.9 mph 33.4 mph N/A   Overcast
2:55 PM 40.8 °F 31.1 °F 39.9 °F 97% 29.52 in 7.0 mi South 21.9 mph 27.6 mph N/A   Drizzle
3:15 PM 41.0 °F 31.4 °F 40.1 °F 97% 29.50 in 2.5 mi South 21.9 mph 27.6 mph N/A Rain Light Rain
3:35 PM 41.0 °F 31.6 °F 40.1 °F 97% 29.50 in 1.8 mi South 20.7 mph - N/A Rain Light Rain
3:55 PM 40.5 °F 31.2 °F 40.1 °F 99% 29.49 in 2.0 mi SSE 19.6 mph - N/A   Overcast
4:15 PM 40.6 °F 31.4 °F 40.3 °F 99% 29.49 in 2.5 mi South 19.6 mph 24.2 mph N/A   Overcast
4:35 PM 41.4 °F 32.4 °F 41.0 °F 99% 29.48 in 5.0 mi South 19.6 mph 25.3 mph N/A   Overcast
4:55 PM 42.1 °F 33.1 °F 41.5 °F 98% 29.48 in 5.0 mi South 20.7 mph 26.5 mph N/A   Overcast
5:15 PM 42.3 °F 33.6 °F 41.9 °F 99% 29.48 in 10.0 mi South 19.6 mph 25.3 mph N/A   Overcast
5:35 PM 42.3 °F 33.6 °F 41.7 °F 98% 29.48 in 10.0 mi South 19.6 mph - N/A   Overcast
5:55 PM 42.3 °F 33.6 °F 41.7 °F 98% 29.47 in 10.0 mi SSE 19.6 mph - N/A   Overcast
6:15 PM 41.9 °F 33.7 °F 41.2 °F 97% 29.46 in 7.0 mi SSE 17.3 mph - N/A   Overcast
6:35 PM 42.8 °F 34.5 °F 41.9 °F 97% 29.46 in 10.0 mi South 18.4 mph - N/A   Overcast
6:55 PM 43.0 °F 34.2 °F 41.9 °F 96% 29.46 in 10.0 mi South 20.7 mph - N/A   Overcast
7:15 PM 43.3 °F 34.7 °F 42.1 °F 95% 29.46 in 10.0 mi South 20.7 mph - N/A   Overcast
7:35 PM 42.8 °F 34.8 °F 41.4 °F 95% 29.46 in 10.0 mi South 17.3 mph - N/A   Scattered Clouds
7:55 PM 42.1 °F 34.2 °F 41.0 °F 96% 29.46 in 10.0 mi SSW 16.1 mph - N/A   Clear
8:15 PM 41.4 °F 33.0 °F 40.5 °F 97% 29.46 in 7.0 mi SSW 17.3 mph - N/A   Clear
8:35 PM 43.0 °F 33.8 °F 41.5 °F 95% 29.46 in 10.0 mi SSW 23.0 mph 28.8 mph N/A   Clear
8:55 PM 43.7 °F 34.7 °F 39.2 °F 84% 29.47 in 10.0 mi SW 23.0 mph 28.8 mph N/A   Clear
9:15 PM 42.8 °F 34.0 °F 37.2 °F 81% 29.47 in 10.0 mi SW 20.7 mph - N/A   Clear
9:35 PM 42.8 °F 32.7 °F 34.2 °F 72% 29.47 in 10.0 mi SW 27.6 mph 34.5 mph N/A   Clear
9:55 PM 43.2 °F 32.8 °F 32.9 °F 67% 29.47 in 10.0 mi SW 29.9 mph 41.4 mph N/A   Scattered Clouds
10:15 PM 42.4 °F 32.6 °F 33.4 °F 70% 29.47 in 10.0 mi SW 25.3 mph 31.1 mph N/A   Overcast
10:35 PM 41.7 °F 31.9 °F 34.2 °F 75% 29.48 in 10.0 mi SW 24.2 mph 29.9 mph N/A   Overcast
11:15 PM 40.1 °F 29.9 °F 33.3 °F 77% 29.49 in 10.0 mi SW 23.0 mph 29.9 mph N/A   Overcast
11:35 PM 39.2 °F 30.2 °F 33.3 °F 79% 29.49 in 10.0 mi SW 17.3 mph 24.2 mph N/A   Overcast
11:55 PM 39.2 °F 28.5 °F 32.9 °F 78% 29.50 in 10.0 mi WSW 24.2 mph 31.1 mph N/A   Overcast